sensor_id;sensor_type;location;lat;lon;timestamp;P1;durP1;ratioP1;P2;durP2;ratioP2
14205;SDS011;7186;48.800;9.216;2023-02-15T00:01:10;31.43;;;19.23;;
14205;SDS011;7186;48.800;9.216;2023-02-15T00:03:35;35.37;;;19.83;;
14205;SDS011;7186;48.800;9.216;2023-02-15T00:06:01;33.10;;;19.90;;
14205;SDS011;7186;48.800;9.216;2023-02-15T00:08:26;39.30;;;21.00;;
14205;SDS011;7186;48.800;9.216;2023-02-15T00:10:51;35.87;;;19.80;;
14205;SDS011;7186;48.800;9.216;2023-02-15T00:13:17;33.87;;;19.60;;
14205;SDS011;7186;48.800;9.216;2023-02-15T00:15:42;36.23;;;20.83;;
14205;SDS011;7186;48.800;9.216;2023-02-15T00:18:07;34.70;;;19.07;;
14205;SDS011;7186;48.800;9.216;2023-02-15T00:20:32;31.60;;;18.57;;
14205;SDS011;7186;48.800;9.216;2023-02-15T00:22:58;31.50;;;18.47;;
14205;SDS011;7186;48.800;9.216;2023-02-15T00:25:23;31.60;;;18.87;;
14205;SDS011;7186;48.800;9.216;2023-02-15T00:27:49;32.50;;;18.43;;
14205;SDS011;7186;48.800;9.216;2023-02-15T00:30:14;29.57;;;18.07;;
14205;SDS011;7186;48.800;9.216;2023-02-15T00:32:39;32.87;;;19.27;;
14205;SDS011;7186;48.800;9.216;2023-02-15T00:35:04;29.90;;;18.07;;
14205;SDS011;7186;48.800;9.216;2023-02-15T00:37:30;33.53;;;18.63;;
14205;SDS011;7186;48.800;9.216;2023-02-15T00:39:55;36.33;;;18.60;;
14205;SDS011;7186;48.800;9.216;2023-02-15T00:42:20;32.70;;;19.17;;
14205;SDS011;7186;48.800;9.216;2023-02-15T00:44:45;31.90;;;19.47;;
14205;SDS011;7186;48.800;9.216;2023-02-15T00:47:10;31.80;;;18.40;;
14205;SDS011;7186;48.800;9.216;2023-02-15T00:49:36;36.13;;;19.00;;
14205;SDS011;7186;48.800;9.216;2023-02-15T00:52:01;32.30;;;18.67;;
14205;SDS011;7186;48.800;9.216;2023-02-15T00:54:26;29.33;;;18.10;;
14205;SDS011;7186;48.800;9.216;2023-02-15T00:56:51;31.03;;;17.47;;
14205;SDS011;7186;48.800;9.216;2023-02-15T00:59:16;32.87;;;17.63;;
14205;SDS011;7186;48.800;9.216;2023-02-15T01:01:42;33.43;;;18.83;;
14205;SDS011;7186;48.800;9.216;2023-02-15T01:04:07;28.70;;;17.70;;
14205;SDS011;7186;48.800;9.216;2023-02-15T01:06:32;31.97;;;18.47;;
14205;SDS011;7186;48.800;9.216;2023-02-15T01:08:57;30.40;;;17.93;;
14205;SDS011;7186;48.800;9.216;2023-02-15T01:11:22;30.73;;;18.37;;
14205;SDS011;7186;48.800;9.216;2023-02-15T01:13:49;33.50;;;18.00;;
14205;SDS011;7186;48.800;9.216;2023-02-15T01:16:14;33.63;;;17.77;;
14205;SDS011;7186;48.800;9.216;2023-02-15T01:18:39;29.73;;;18.27;;
14205;SDS011;7186;48.800;9.216;2023-02-15T01:21:15;32.57;;;17.60;;
14205;SDS011;7186;48.800;9.216;2023-02-15T01:23:41;34.10;;;17.87;;
14205;SDS011;7186;48.800;9.216;2023-02-15T01:26:07;33.57;;;17.50;;
14205;SDS011;7186;48.800;9.216;2023-02-15T01:28:32;37.00;;;18.57;;
14205;SDS011;7186;48.800;9.216;2023-02-15T01:30:58;32.40;;;17.37;;
14205;SDS011;7186;48.800;9.216;2023-02-15T01:33:24;31.80;;;18.33;;
14205;SDS011;7186;48.800;9.216;2023-02-15T01:35:52;34.23;;;16.27;;
14205;SDS011;7186;48.800;9.216;2023-02-15T01:38:20;35.20;;;18.90;;
14205;SDS011;7186;48.800;9.216;2023-02-15T01:40:45;32.17;;;17.50;;
14205;SDS011;7186;48.800;9.216;2023-02-15T01:43:11;32.33;;;17.47;;
14205;SDS011;7186;48.800;9.216;2023-02-15T01:45:37;28.17;;;16.60;;
14205;SDS011;7186;48.800;9.216;2023-02-15T01:48:11;32.87;;;17.97;;
14205;SDS011;7186;48.800;9.216;2023-02-15T01:50:43;27.03;;;17.10;;
14205;SDS011;7186;48.800;9.216;2023-02-15T01:53:12;30.73;;;17.83;;
14205;SDS011;7186;48.800;9.216;2023-02-15T01:55:46;33.27;;;18.60;;
14205;SDS011;7186;48.800;9.216;2023-02-15T01:58:13;28.70;;;17.33;;
14205;SDS011;7186;48.800;9.216;2023-02-15T02:00:39;30.77;;;17.90;;
14205;SDS011;7186;48.800;9.216;2023-02-15T02:03:04;27.20;;;17.33;;
14205;SDS011;7186;48.800;9.216;2023-02-15T02:05:29;27.07;;;16.93;;
14205;SDS011;7186;48.800;9.216;2023-02-15T02:07:56;33.10;;;17.87;;
14205;SDS011;7186;48.800;9.216;2023-02-15T02:10:22;34.50;;;17.97;;
14205;SDS011;7186;48.800;9.216;2023-02-15T02:12:48;29.77;;;17.23;;
14205;SDS011;7186;48.800;9.216;2023-02-15T02:15:15;29.33;;;17.00;;
14205;SDS011;7186;48.800;9.216;2023-02-15T02:18:03;30.47;;;17.07;;
14205;SDS011;7186;48.800;9.216;2023-02-15T02:33:21;30.33;;;16.13;;
14205;SDS011;7186;48.800;9.216;2023-02-15T02:38:22;32.90;;;17.10;;
14205;SDS011;7186;48.800;9.216;2023-02-15T02:40:55;34.00;;;17.27;;
14205;SDS011;7186;48.800;9.216;2023-02-15T02:43:31;29.67;;;16.97;;
14205;SDS011;7186;48.800;9.216;2023-02-15T02:46:00;27.43;;;16.27;;
14205;SDS011;7186;48.800;9.216;2023-02-15T02:48:28;31.17;;;16.83;;
14205;SDS011;7186;48.800;9.216;2023-02-15T02:50:54;26.23;;;15.73;;
14205;SDS011;7186;48.800;9.216;2023-02-15T02:53:19;29.90;;;16.70;;
14205;SDS011;7186;48.800;9.216;2023-02-15T02:55:49;29.97;;;15.97;;
14205;SDS011;7186;48.800;9.216;2023-02-15T03:03:10;27.30;;;16.27;;
14205;SDS011;7186;48.800;9.216;2023-02-15T03:05:37;27.03;;;15.67;;
14205;SDS011;7186;48.800;9.216;2023-02-15T03:08:04;28.30;;;15.13;;
14205;SDS011;7186;48.800;9.216;2023-02-15T03:10:31;27.40;;;15.33;;
14205;SDS011;7186;48.800;9.216;2023-02-15T03:12:57;24.97;;;15.60;;
14205;SDS011;7186;48.800;9.216;2023-02-15T03:15:26;24.73;;;15.07;;
14205;SDS011;7186;48.800;9.216;2023-02-15T03:18:14;28.40;;;14.90;;
14205;SDS011;7186;48.800;9.216;2023-02-15T03:20:41;24.90;;;14.67;;
14205;SDS011;7186;48.800;9.216;2023-02-15T03:23:09;24.93;;;15.13;;
14205;SDS011;7186;48.800;9.216;2023-02-15T03:25:37;26.93;;;14.63;;
14205;SDS011;7186;48.800;9.216;2023-02-15T03:28:07;29.77;;;16.13;;
14205;SDS011;7186;48.800;9.216;2023-02-15T03:30:34;27.73;;;15.33;;
14205;SDS011;7186;48.800;9.216;2023-02-15T03:32:59;26.83;;;15.27;;
14205;SDS011;7186;48.800;9.216;2023-02-15T03:35:26;30.63;;;15.70;;
14205;SDS011;7186;48.800;9.216;2023-02-15T03:37:59;28.53;;;15.83;;
14205;SDS011;7186;48.800;9.216;2023-02-15T03:43:15;28.13;;;14.93;;
14205;SDS011;7186;48.800;9.216;2023-02-15T03:45:42;28.20;;;14.63;;
14205;SDS011;7186;48.800;9.216;2023-02-15T03:48:26;27.50;;;16.63;;
14205;SDS011;7186;48.800;9.216;2023-02-15T03:50:53;26.83;;;15.03;;
14205;SDS011;7186;48.800;9.216;2023-02-15T03:53:43;24.83;;;15.07;;
14205;SDS011;7186;48.800;9.216;2023-02-15T03:56:09;23.30;;;14.83;;
14205;SDS011;7186;48.800;9.216;2023-02-15T03:58:35;26.10;;;14.70;;
14205;SDS011;7186;48.800;9.216;2023-02-15T04:01:33;30.27;;;15.23;;
14205;SDS011;7186;48.800;9.216;2023-02-15T04:04:19;28.33;;;16.47;;
14205;SDS011;7186;48.800;9.216;2023-02-15T04:06:45;24.30;;;14.73;;
14205;SDS011;7186;48.800;9.216;2023-02-15T04:09:11;27.33;;;15.27;;
14205;SDS011;7186;48.800;9.216;2023-02-15T04:11:55;28.63;;;15.97;;
14205;SDS011;7186;48.800;9.216;2023-02-15T04:14:20;24.57;;;15.00;;
14205;SDS011;7186;48.800;9.216;2023-02-15T04:17:07;25.93;;;15.07;;
14205;SDS011;7186;48.800;9.216;2023-02-15T04:19:33;26.40;;;14.37;;
14205;SDS011;7186;48.800;9.216;2023-02-15T04:22:16;24.10;;;14.37;;
14205;SDS011;7186;48.800;9.216;2023-02-15T04:25:00;25.43;;;14.97;;
14205;SDS011;7186;48.800;9.216;2023-02-15T04:27:38;25.07;;;15.03;;
14205;SDS011;7186;48.800;9.216;2023-02-15T04:30:04;23.70;;;14.57;;
14205;SDS011;7186;48.800;9.216;2023-02-15T04:32:30;27.53;;;15.47;;
14205;SDS011;7186;48.800;9.216;2023-02-15T04:34:55;25.43;;;14.77;;
14205;SDS011;7186;48.800;9.216;2023-02-15T04:37:20;27.03;;;14.37;;
14205;SDS011;7186;48.800;9.216;2023-02-15T04:39:45;25.57;;;14.93;;
14205;SDS011;7186;48.800;9.216;2023-02-15T04:42:10;28.10;;;14.93;;
14205;SDS011;7186;48.800;9.216;2023-02-15T04:44:36;25.57;;;14.30;;
14205;SDS011;7186;48.800;9.216;2023-02-15T04:47:01;26.87;;;15.17;;
14205;SDS011;7186;48.800;9.216;2023-02-15T04:49:26;28.43;;;15.77;;
14205;SDS011;7186;48.800;9.216;2023-02-15T04:51:51;25.70;;;14.70;;
14205;SDS011;7186;48.800;9.216;2023-02-15T04:54:16;29.07;;;15.27;;
14205;SDS011;7186;48.800;9.216;2023-02-15T04:56:42;29.17;;;15.87;;
14205;SDS011;7186;48.800;9.216;2023-02-15T04:59:09;27.47;;;14.57;;
14205;SDS011;7186;48.800;9.216;2023-02-15T05:01:34;29.57;;;15.73;;
14205;SDS011;7186;48.800;9.216;2023-02-15T05:04:00;30.93;;;16.07;;
14205;SDS011;7186;48.800;9.216;2023-02-15T05:06:25;29.07;;;15.27;;
14205;SDS011;7186;48.800;9.216;2023-02-15T05:08:50;27.97;;;15.63;;
14205;SDS011;7186;48.800;9.216;2023-02-15T05:11:15;26.87;;;15.53;;
14205;SDS011;7186;48.800;9.216;2023-02-15T05:13:41;32.60;;;16.33;;
14205;SDS011;7186;48.800;9.216;2023-02-15T05:16:06;25.50;;;15.67;;
14205;SDS011;7186;48.800;9.216;2023-02-15T05:18:32;28.63;;;15.53;;
14205;SDS011;7186;48.800;9.216;2023-02-15T05:20:57;26.23;;;14.63;;
14205;SDS011;7186;48.800;9.216;2023-02-15T05:23:22;30.23;;;16.20;;
14205;SDS011;7186;48.800;9.216;2023-02-15T05:25:48;31.70;;;15.83;;
14205;SDS011;7186;48.800;9.216;2023-02-15T05:28:32;27.70;;;15.50;;
14205;SDS011;7186;48.800;9.216;2023-02-15T05:33:29;30.13;;;15.80;;
14205;SDS011;7186;48.800;9.216;2023-02-15T05:35:54;27.60;;;15.57;;
14205;SDS011;7186;48.800;9.216;2023-02-15T05:38:19;32.50;;;15.60;;
14205;SDS011;7186;48.800;9.216;2023-02-15T05:40:45;29.63;;;15.97;;
14205;SDS011;7186;48.800;9.216;2023-02-15T05:43:10;28.50;;;14.47;;
14205;SDS011;7186;48.800;9.216;2023-02-15T05:45:35;25.77;;;14.60;;
14205;SDS011;7186;48.800;9.216;2023-02-15T05:48:00;29.47;;;15.77;;
14205;SDS011;7186;48.800;9.216;2023-02-15T05:50:25;30.37;;;16.43;;
14205;SDS011;7186;48.800;9.216;2023-02-15T05:52:51;30.97;;;15.70;;
14205;SDS011;7186;48.800;9.216;2023-02-15T05:55:16;30.13;;;14.93;;
14205;SDS011;7186;48.800;9.216;2023-02-15T05:57:41;28.67;;;13.93;;
14205;SDS011;7186;48.800;9.216;2023-02-15T06:00:07;25.97;;;14.90;;
14205;SDS011;7186;48.800;9.216;2023-02-15T06:02:33;30.20;;;15.00;;
14205;SDS011;7186;48.800;9.216;2023-02-15T06:04:59;26.83;;;13.57;;
14205;SDS011;7186;48.800;9.216;2023-02-15T06:07:24;30.23;;;14.53;;
14205;SDS011;7186;48.800;9.216;2023-02-15T06:09:49;29.17;;;15.07;;
14205;SDS011;7186;48.800;9.216;2023-02-15T06:12:14;29.23;;;15.03;;
14205;SDS011;7186;48.800;9.216;2023-02-15T06:14:40;26.90;;;13.70;;
14205;SDS011;7186;48.800;9.216;2023-02-15T06:17:05;32.40;;;15.27;;
14205;SDS011;7186;48.800;9.216;2023-02-15T06:19:30;29.40;;;15.10;;
14205;SDS011;7186;48.800;9.216;2023-02-15T06:21:55;29.20;;;14.57;;
14205;SDS011;7186;48.800;9.216;2023-02-15T06:24:20;28.83;;;15.47;;
14205;SDS011;7186;48.800;9.216;2023-02-15T06:26:46;34.20;;;16.37;;
14205;SDS011;7186;48.800;9.216;2023-02-15T06:29:11;28.57;;;15.47;;
14205;SDS011;7186;48.800;9.216;2023-02-15T06:31:36;33.03;;;15.90;;
14205;SDS011;7186;48.800;9.216;2023-02-15T06:34:01;27.43;;;16.13;;
14205;SDS011;7186;48.800;9.216;2023-02-15T06:36:27;33.80;;;15.90;;
14205;SDS011;7186;48.800;9.216;2023-02-15T06:38:53;28.23;;;15.37;;
14205;SDS011;7186;48.800;9.216;2023-02-15T06:41:18;29.93;;;15.77;;
14205;SDS011;7186;48.800;9.216;2023-02-15T06:43:43;27.63;;;14.87;;
14205;SDS011;7186;48.800;9.216;2023-02-15T06:46:09;31.20;;;16.20;;
14205;SDS011;7186;48.800;9.216;2023-02-15T06:48:34;27.57;;;15.27;;
14205;SDS011;7186;48.800;9.216;2023-02-15T06:50:59;28.17;;;14.60;;
14205;SDS011;7186;48.800;9.216;2023-02-15T06:53:24;29.13;;;15.30;;
14205;SDS011;7186;48.800;9.216;2023-02-15T06:55:49;28.40;;;14.63;;
14205;SDS011;7186;48.800;9.216;2023-02-15T06:58:15;28.37;;;14.73;;
14205;SDS011;7186;48.800;9.216;2023-02-15T07:00:40;27.33;;;14.50;;
14205;SDS011;7186;48.800;9.216;2023-02-15T07:03:05;27.30;;;14.43;;
14205;SDS011;7186;48.800;9.216;2023-02-15T07:05:32;25.57;;;13.07;;
14205;SDS011;7186;48.800;9.216;2023-02-15T07:07:57;25.07;;;13.40;;
14205;SDS011;7186;48.800;9.216;2023-02-15T07:10:23;26.00;;;13.73;;
14205;SDS011;7186;48.800;9.216;2023-02-15T07:12:48;25.77;;;14.10;;
14205;SDS011;7186;48.800;9.216;2023-02-15T07:15:17;23.57;;;13.97;;
14205;SDS011;7186;48.800;9.216;2023-02-15T07:17:43;22.17;;;12.93;;
14205;SDS011;7186;48.800;9.216;2023-02-15T07:20:12;21.67;;;14.23;;
14205;SDS011;7186;48.800;9.216;2023-02-15T07:22:38;22.07;;;13.93;;
14205;SDS011;7186;48.800;9.216;2023-02-15T07:25:03;25.60;;;13.57;;
14205;SDS011;7186;48.800;9.216;2023-02-15T07:27:30;26.40;;;14.33;;
14205;SDS011;7186;48.800;9.216;2023-02-15T07:29:55;22.70;;;13.57;;
14205;SDS011;7186;48.800;9.216;2023-02-15T07:32:20;27.37;;;14.77;;
14205;SDS011;7186;48.800;9.216;2023-02-15T07:34:45;21.27;;;12.63;;
14205;SDS011;7186;48.800;9.216;2023-02-15T07:37:11;26.30;;;14.40;;
14205;SDS011;7186;48.800;9.216;2023-02-15T07:39:36;26.83;;;13.83;;
14205;SDS011;7186;48.800;9.216;2023-02-15T07:42:01;23.60;;;13.17;;
14205;SDS011;7186;48.800;9.216;2023-02-15T07:44:26;25.50;;;13.50;;
14205;SDS011;7186;48.800;9.216;2023-02-15T07:46:52;27.57;;;14.73;;
14205;SDS011;7186;48.800;9.216;2023-02-15T07:49:17;25.03;;;14.10;;
14205;SDS011;7186;48.800;9.216;2023-02-15T07:51:42;28.40;;;15.60;;
14205;SDS011;7186;48.800;9.216;2023-02-15T07:54:07;26.10;;;14.20;;
14205;SDS011;7186;48.800;9.216;2023-02-15T07:56:33;26.50;;;13.70;;
14205;SDS011;7186;48.800;9.216;2023-02-15T07:58:58;27.80;;;15.23;;
14205;SDS011;7186;48.800;9.216;2023-02-15T08:03:50;30.70;;;14.63;;
14205;SDS011;7186;48.800;9.216;2023-02-15T08:06:16;25.57;;;13.97;;
14205;SDS011;7186;48.800;9.216;2023-02-15T08:08:41;29.07;;;14.87;;
14205;SDS011;7186;48.800;9.216;2023-02-15T08:11:26;26.07;;;14.33;;
14205;SDS011;7186;48.800;9.216;2023-02-15T08:17:02;23.80;;;13.67;;
14205;SDS011;7186;48.800;9.216;2023-02-15T08:19:27;27.93;;;14.57;;
14205;SDS011;7186;48.800;9.216;2023-02-15T08:21:54;29.10;;;14.40;;
14205;SDS011;7186;48.800;9.216;2023-02-15T08:24:22;26.90;;;14.87;;
14205;SDS011;7186;48.800;9.216;2023-02-15T08:26:48;29.70;;;16.37;;
14205;SDS011;7186;48.800;9.216;2023-02-15T08:29:14;28.80;;;15.40;;
14205;SDS011;7186;48.800;9.216;2023-02-15T08:31:39;27.50;;;15.20;;
14205;SDS011;7186;48.800;9.216;2023-02-15T08:34:06;27.80;;;15.00;;
14205;SDS011;7186;48.800;9.216;2023-02-15T08:36:31;27.30;;;15.80;;
14205;SDS011;7186;48.800;9.216;2023-02-15T08:38:57;26.60;;;14.83;;
14205;SDS011;7186;48.800;9.216;2023-02-15T08:41:24;25.97;;;15.30;;
14205;SDS011;7186;48.800;9.216;2023-02-15T08:43:50;33.53;;;16.13;;
14205;SDS011;7186;48.800;9.216;2023-02-15T08:46:16;28.67;;;14.63;;
14205;SDS011;7186;48.800;9.216;2023-02-15T08:48:42;25.53;;;15.60;;
14205;SDS011;7186;48.800;9.216;2023-02-15T08:51:09;28.07;;;15.53;;
14205;SDS011;7186;48.800;9.216;2023-02-15T08:53:36;25.97;;;15.53;;
14205;SDS011;7186;48.800;9.216;2023-02-15T08:56:01;29.10;;;16.17;;
14205;SDS011;7186;48.800;9.216;2023-02-15T08:58:27;26.30;;;14.60;;
14205;SDS011;7186;48.800;9.216;2023-02-15T09:00:53;25.77;;;15.20;;
14205;SDS011;7186;48.800;9.216;2023-02-15T09:03:18;27.30;;;16.23;;
14205;SDS011;7186;48.800;9.216;2023-02-15T09:05:43;27.97;;;16.73;;
14205;SDS011;7186;48.800;9.216;2023-02-15T09:08:11;30.93;;;15.50;;
14205;SDS011;7186;48.800;9.216;2023-02-15T09:10:37;26.37;;;14.97;;
14205;SDS011;7186;48.800;9.216;2023-02-15T09:13:02;25.53;;;14.53;;
14205;SDS011;7186;48.800;9.216;2023-02-15T09:15:27;26.80;;;15.10;;
14205;SDS011;7186;48.800;9.216;2023-02-15T09:17:53;25.73;;;15.27;;
14205;SDS011;7186;48.800;9.216;2023-02-15T09:20:18;27.10;;;15.73;;
14205;SDS011;7186;48.800;9.216;2023-02-15T09:22:44;27.77;;;15.37;;
14205;SDS011;7186;48.800;9.216;2023-02-15T09:25:09;29.47;;;16.40;;
14205;SDS011;7186;48.800;9.216;2023-02-15T09:27:34;27.43;;;15.83;;
14205;SDS011;7186;48.800;9.216;2023-02-15T09:30:01;29.30;;;17.00;;
14205;SDS011;7186;48.800;9.216;2023-02-15T09:32:27;26.50;;;16.53;;
14205;SDS011;7186;48.800;9.216;2023-02-15T09:34:54;28.00;;;15.80;;
14205;SDS011;7186;48.800;9.216;2023-02-15T09:37:20;24.20;;;15.63;;
14205;SDS011;7186;48.800;9.216;2023-02-15T09:39:46;23.90;;;14.27;;
14205;SDS011;7186;48.800;9.216;2023-02-15T09:50:13;25.80;;;15.63;;
14205;SDS011;7186;48.800;9.216;2023-02-15T10:11:31;23.47;;;14.63;;
14205;SDS011;7186;48.800;9.216;2023-02-15T10:14:11;21.50;;;14.20;;
14205;SDS011;7186;48.800;9.216;2023-02-15T10:16:58;25.57;;;15.20;;
14205;SDS011;7186;48.800;9.216;2023-02-15T10:19:35;20.87;;;13.57;;
14205;SDS011;7186;48.800;9.216;2023-02-15T10:25:14;21.10;;;14.03;;
14205;SDS011;7186;48.800;9.216;2023-02-15T10:27:46;22.47;;;14.47;;
14205;SDS011;7186;48.800;9.216;2023-02-15T10:30:16;22.50;;;14.33;;
14205;SDS011;7186;48.800;9.216;2023-02-15T10:32:56;21.23;;;14.80;;
14205;SDS011;7186;48.800;9.216;2023-02-15T10:38:36;20.97;;;15.50;;
14205;SDS011;7186;48.800;9.216;2023-02-15T10:51:50;21.53;;;14.57;;
14205;SDS011;7186;48.800;9.216;2023-02-15T10:54:31;24.00;;;16.30;;
14205;SDS011;7186;48.800;9.216;2023-02-15T10:57:06;22.50;;;16.60;;
14205;SDS011;7186;48.800;9.216;2023-02-15T10:59:44;23.50;;;15.77;;
14205;SDS011;7186;48.800;9.216;2023-02-15T11:07:16;23.83;;;16.23;;
14205;SDS011;7186;48.800;9.216;2023-02-15T11:09:49;20.73;;;16.03;;
14205;SDS011;7186;48.800;9.216;2023-02-15T11:12:17;21.90;;;16.63;;
14205;SDS011;7186;48.800;9.216;2023-02-15T11:14:56;23.30;;;16.37;;
14205;SDS011;7186;48.800;9.216;2023-02-15T11:17:37;27.33;;;16.93;;
14205;SDS011;7186;48.800;9.216;2023-02-15T11:20:09;23.37;;;16.13;;
14205;SDS011;7186;48.800;9.216;2023-02-15T11:23:00;23.03;;;16.20;;
14205;SDS011;7186;48.800;9.216;2023-02-15T11:25:52;21.40;;;16.23;;
14205;SDS011;7186;48.800;9.216;2023-02-15T11:28:27;23.07;;;16.20;;
14205;SDS011;7186;48.800;9.216;2023-02-15T11:30:55;20.50;;;16.37;;
14205;SDS011;7186;48.800;9.216;2023-02-15T11:33:23;22.93;;;16.93;;
14205;SDS011;7186;48.800;9.216;2023-02-15T11:36:00;19.97;;;16.37;;
14205;SDS011;7186;48.800;9.216;2023-02-15T11:38:31;25.67;;;17.73;;
14205;SDS011;7186;48.800;9.216;2023-02-15T11:40:59;22.33;;;16.40;;
14205;SDS011;7186;48.800;9.216;2023-02-15T11:46:04;24.37;;;17.03;;
14205;SDS011;7186;48.800;9.216;2023-02-15T11:48:31;22.43;;;17.17;;
14205;SDS011;7186;48.800;9.216;2023-02-15T11:50:57;23.47;;;17.00;;
14205;SDS011;7186;48.800;9.216;2023-02-15T11:53:22;24.80;;;17.33;;
14205;SDS011;7186;48.800;9.216;2023-02-15T11:55:53;27.40;;;17.03;;
14205;SDS011;7186;48.800;9.216;2023-02-15T12:01:14;26.03;;;17.73;;
14205;SDS011;7186;48.800;9.216;2023-02-15T12:03:44;26.57;;;17.83;;
14205;SDS011;7186;48.800;9.216;2023-02-15T12:06:30;24.77;;;17.57;;
14205;SDS011;7186;48.800;9.216;2023-02-15T12:11:42;23.97;;;17.77;;
14205;SDS011;7186;48.800;9.216;2023-02-15T12:14:08;23.53;;;17.83;;
14205;SDS011;7186;48.800;9.216;2023-02-15T12:16:39;24.13;;;18.33;;
14205;SDS011;7186;48.800;9.216;2023-02-15T12:19:10;24.43;;;17.67;;
14205;SDS011;7186;48.800;9.216;2023-02-15T12:21:41;27.43;;;18.13;;
14205;SDS011;7186;48.800;9.216;2023-02-15T12:24:14;23.00;;;17.60;;
14205;SDS011;7186;48.800;9.216;2023-02-15T12:26:42;27.33;;;19.20;;
14205;SDS011;7186;48.800;9.216;2023-02-15T12:29:17;25.50;;;18.47;;
14205;SDS011;7186;48.800;9.216;2023-02-15T12:31:46;23.17;;;18.57;;
14205;SDS011;7186;48.800;9.216;2023-02-15T12:34:21;27.93;;;19.00;;
14205;SDS011;7186;48.800;9.216;2023-02-15T12:36:48;24.63;;;18.03;;
14205;SDS011;7186;48.800;9.216;2023-02-15T12:39:19;23.93;;;18.33;;
14205;SDS011;7186;48.800;9.216;2023-02-15T12:41:49;25.40;;;17.77;;
14205;SDS011;7186;48.800;9.216;2023-02-15T12:46:56;26.07;;;18.57;;
14205;SDS011;7186;48.800;9.216;2023-02-15T12:49:21;26.17;;;18.27;;
14205;SDS011;7186;48.800;9.216;2023-02-15T12:51:51;29.50;;;19.67;;
14205;SDS011;7186;48.800;9.216;2023-02-15T12:54:30;24.30;;;19.00;;
14205;SDS011;7186;48.800;9.216;2023-02-15T12:56:56;25.87;;;18.10;;
14205;SDS011;7186;48.800;9.216;2023-02-15T12:59:22;26.97;;;18.67;;
14205;SDS011;7186;48.800;9.216;2023-02-15T13:01:48;21.87;;;16.67;;
14205;SDS011;7186;48.800;9.216;2023-02-15T13:06:48;25.07;;;19.10;;
14205;SDS011;7186;48.800;9.216;2023-02-15T13:09:36;26.03;;;18.40;;
14205;SDS011;7186;48.800;9.216;2023-02-15T13:14:42;28.03;;;19.47;;
14205;SDS011;7186;48.800;9.216;2023-02-15T13:17:08;29.07;;;18.00;;
14205;SDS011;7186;48.800;9.216;2023-02-15T13:19:35;26.53;;;18.70;;
14205;SDS011;7186;48.800;9.216;2023-02-15T13:22:02;27.90;;;17.77;;
14205;SDS011;7186;48.800;9.216;2023-02-15T13:24:32;29.37;;;20.13;;
14205;SDS011;7186;48.800;9.216;2023-02-15T13:26:58;25.93;;;18.53;;
14205;SDS011;7186;48.800;9.216;2023-02-15T13:29:25;25.47;;;18.00;;
14205;SDS011;7186;48.800;9.216;2023-02-15T13:31:52;33.87;;;19.93;;
14205;SDS011;7186;48.800;9.216;2023-02-15T13:34:37;28.43;;;19.63;;
14205;SDS011;7186;48.800;9.216;2023-02-15T13:39:42;25.57;;;18.27;;
14205;SDS011;7186;48.800;9.216;2023-02-15T13:47:14;29.73;;;18.60;;
14205;SDS011;7186;48.800;9.216;2023-02-15T13:52:22;30.43;;;19.73;;
14205;SDS011;7186;48.800;9.216;2023-02-15T13:57:58;37.80;;;19.37;;
14205;SDS011;7186;48.800;9.216;2023-02-15T14:10:31;33.73;;;19.37;;
14205;SDS011;7186;48.800;9.216;2023-02-15T14:15:55;37.03;;;18.97;;
14205;SDS011;7186;48.800;9.216;2023-02-15T14:21:01;34.63;;;18.90;;
14205;SDS011;7186;48.800;9.216;2023-02-15T14:25:57;38.10;;;18.37;;
14205;SDS011;7186;48.800;9.216;2023-02-15T14:31:05;31.63;;;18.03;;
14205;SDS011;7186;48.800;9.216;2023-02-15T14:33:36;29.17;;;17.50;;
14205;SDS011;7186;48.800;9.216;2023-02-15T14:36:03;30.57;;;17.73;;
14205;SDS011;7186;48.800;9.216;2023-02-15T14:46:36;32.60;;;17.67;;
14205;SDS011;7186;48.800;9.216;2023-02-15T14:51:53;29.03;;;17.60;;
14205;SDS011;7186;48.800;9.216;2023-02-15T14:59:43;29.57;;;16.93;;
14205;SDS011;7186;48.800;9.216;2023-02-15T15:02:15;26.40;;;16.87;;
14205;SDS011;7186;48.800;9.216;2023-02-15T15:04:52;26.07;;;17.23;;
14205;SDS011;7186;48.800;9.216;2023-02-15T15:07:21;26.93;;;16.67;;
14205;SDS011;7186;48.800;9.216;2023-02-15T15:10:04;30.27;;;17.97;;
14205;SDS011;7186;48.800;9.216;2023-02-15T15:12:40;25.13;;;17.30;;
14205;SDS011;7186;48.800;9.216;2023-02-15T15:15:06;28.97;;;17.10;;
14205;SDS011;7186;48.800;9.216;2023-02-15T15:19:58;35.90;;;17.47;;
14205;SDS011;7186;48.800;9.216;2023-02-15T15:22:25;36.13;;;18.30;;
14205;SDS011;7186;48.800;9.216;2023-02-15T15:24:54;26.93;;;16.77;;
14205;SDS011;7186;48.800;9.216;2023-02-15T15:32:38;29.40;;;16.20;;
14205;SDS011;7186;48.800;9.216;2023-02-15T15:37:44;33.20;;;16.43;;
14205;SDS011;7186;48.800;9.216;2023-02-15T15:40:24;24.80;;;15.60;;
14205;SDS011;7186;48.800;9.216;2023-02-15T15:47:58;26.23;;;15.97;;
14205;SDS011;7186;48.800;9.216;2023-02-15T15:50:25;24.13;;;15.63;;
14205;SDS011;7186;48.800;9.216;2023-02-15T15:52:55;24.63;;;15.70;;
14205;SDS011;7186;48.800;9.216;2023-02-15T15:55:22;27.93;;;16.80;;
14205;SDS011;7186;48.800;9.216;2023-02-15T15:58:09;25.23;;;16.90;;
14205;SDS011;7186;48.800;9.216;2023-02-15T16:00:46;25.03;;;15.53;;
14205;SDS011;7186;48.800;9.216;2023-02-15T16:03:16;29.37;;;16.97;;
14205;SDS011;7186;48.800;9.216;2023-02-15T16:05:41;29.50;;;15.97;;
14205;SDS011;7186;48.800;9.216;2023-02-15T16:08:06;23.30;;;15.53;;
14205;SDS011;7186;48.800;9.216;2023-02-15T16:10:32;24.20;;;16.07;;
14205;SDS011;7186;48.800;9.216;2023-02-15T16:12:58;30.70;;;15.73;;
14205;SDS011;7186;48.800;9.216;2023-02-15T16:15:26;33.67;;;16.20;;
14205;SDS011;7186;48.800;9.216;2023-02-15T16:17:56;28.73;;;15.43;;
14205;SDS011;7186;48.800;9.216;2023-02-15T16:22:47;30.97;;;15.43;;
14205;SDS011;7186;48.800;9.216;2023-02-15T16:27:46;26.70;;;16.73;;
14205;SDS011;7186;48.800;9.216;2023-02-15T16:32:42;36.13;;;16.80;;
14205;SDS011;7186;48.800;9.216;2023-02-15T16:35:15;33.17;;;17.77;;
14205;SDS011;7186;48.800;9.216;2023-02-15T16:37:40;40.20;;;18.03;;
14205;SDS011;7186;48.800;9.216;2023-02-15T16:40:06;38.67;;;16.60;;
14205;SDS011;7186;48.800;9.216;2023-02-15T16:42:31;32.90;;;18.63;;
14205;SDS011;7186;48.800;9.216;2023-02-15T16:45:05;36.83;;;18.00;;
14205;SDS011;7186;48.800;9.216;2023-02-15T16:47:33;30.73;;;18.27;;
14205;SDS011;7186;48.800;9.216;2023-02-15T16:50:02;31.40;;;17.23;;
14205;SDS011;7186;48.800;9.216;2023-02-15T16:52:29;29.47;;;17.97;;
14205;SDS011;7186;48.800;9.216;2023-02-15T16:54:55;44.40;;;19.70;;
14205;SDS011;7186;48.800;9.216;2023-02-15T16:57:22;34.67;;;17.67;;
14205;SDS011;7186;48.800;9.216;2023-02-15T16:59:48;33.17;;;19.07;;
14205;SDS011;7186;48.800;9.216;2023-02-15T17:02:19;37.67;;;18.90;;
14205;SDS011;7186;48.800;9.216;2023-02-15T17:04:52;33.97;;;18.33;;
14205;SDS011;7186;48.800;9.216;2023-02-15T17:07:25;34.67;;;18.80;;
14205;SDS011;7186;48.800;9.216;2023-02-15T17:09:52;32.90;;;18.77;;
14205;SDS011;7186;48.800;9.216;2023-02-15T17:15:01;37.27;;;20.10;;
14205;SDS011;7186;48.800;9.216;2023-02-15T17:17:27;35.77;;;20.30;;
14205;SDS011;7186;48.800;9.216;2023-02-15T17:19:53;37.03;;;19.10;;
14205;SDS011;7186;48.800;9.216;2023-02-15T17:22:20;32.23;;;20.37;;
14205;SDS011;7186;48.800;9.216;2023-02-15T17:24:46;32.77;;;20.03;;
14205;SDS011;7186;48.800;9.216;2023-02-15T17:27:17;42.47;;;21.87;;
14205;SDS011;7186;48.800;9.216;2023-02-15T17:29:44;38.47;;;22.17;;
14205;SDS011;7186;48.800;9.216;2023-02-15T17:32:29;36.10;;;21.20;;